createdAt,value
2022-12-09T00:01:10.781Z,1.20
2022-12-09T00:03:39.222Z,1.20
2022-12-09T00:06:09.172Z,1.20
2022-12-09T00:08:38.920Z,1.20
2022-12-09T00:11:07.895Z,1.30
2022-12-09T00:13:36.197Z,1.20
2022-12-09T00:16:07.457Z,1.20
2022-12-09T00:18:35.872Z,1.20
2022-12-09T00:21:13.428Z,1.20
2022-12-09T00:23:42.918Z,1.20
2022-12-09T00:26:11.226Z,1.20
2022-12-09T00:28:39.675Z,1.20
2022-12-09T00:31:08.036Z,1.20
2022-12-09T00:33:36.673Z,1.20
2022-12-09T00:36:06.749Z,1.20
2022-12-09T00:38:34.783Z,1.10
2022-12-09T00:41:04.475Z,1.10
2022-12-09T00:43:33.056Z,1.10
2022-12-09T00:46:01.003Z,1.10
2022-12-09T00:48:29.406Z,1.10
2022-12-09T00:50:57.367Z,1.10
2022-12-09T00:53:25.455Z,1.10
2022-12-09T00:55:53.695Z,1.00
2022-12-09T00:58:23.069Z,1.00
2022-12-09T01:00:51.345Z,1.00
2022-12-09T01:03:20.191Z,0.90
2022-12-09T01:05:48.380Z,0.90
2022-12-09T01:08:16.647Z,0.90
2022-12-09T01:10:45.880Z,0.90
2022-12-09T01:13:15.476Z,0.90
2022-12-09T01:15:45.465Z,0.80
2022-12-09T01:18:15.359Z,0.80
2022-12-09T01:20:43.423Z,0.70
2022-12-09T01:23:11.499Z,0.70
2022-12-09T01:25:39.997Z,0.70
2022-12-09T01:28:07.863Z,0.70
2022-12-09T01:30:36.005Z,0.70
2022-12-09T01:33:05.544Z,0.70
2022-12-09T01:35:33.531Z,0.70
2022-12-09T01:38:02.053Z,0.70
2022-12-09T01:40:30.023Z,0.70
2022-12-09T01:42:57.912Z,0.70
2022-12-09T01:45:49.871Z,0.60
2022-12-09T01:48:21.934Z,0.60
2022-12-09T01:50:53.763Z,0.60
2022-12-09T01:53:25.642Z,0.60
2022-12-09T01:55:55.493Z,0.50
2022-12-09T01:58:24.640Z,0.50
2022-12-09T02:00:52.724Z,0.50
2022-12-09T02:03:22.326Z,0.40
2022-12-09T02:05:50.477Z,0.40
2022-12-09T02:08:20.231Z,0.40
2022-12-09T02:10:55.219Z,0.40
2022-12-09T02:13:29.333Z,0.30
2022-12-09T02:16:01.014Z,0.30
2022-12-09T02:18:37.960Z,0.30
2022-12-09T02:21:11.223Z,0.30
2022-12-09T02:23:42.493Z,0.30
2022-12-09T02:26:22.137Z,0.20
2022-12-09T02:29:17.718Z,0.20
2022-12-09T02:32:02.612Z,0.20
2022-12-09T02:34:34.728Z,0.20
2022-12-09T02:37:10.808Z,0.10
2022-12-09T02:39:44.987Z,0.10
2022-12-09T02:42:18.103Z,0.10
2022-12-09T02:44:49.473Z,0.00
2022-12-09T02:47:21.229Z,0.00
2022-12-09T02:49:55.820Z,0.00
2022-12-09T02:52:24.762Z,0.00
2022-12-09T02:54:53.553Z,0.00
2022-12-09T02:57:25.541Z,0.00
2022-12-09T02:59:53.867Z,0.10
2022-12-09T03:02:28.425Z,0.00
2022-12-09T03:05:10.300Z,0.00
2022-12-09T03:07:43.218Z,0.00
2022-12-09T03:10:17.165Z,0.00
2022-12-09T03:12:51.301Z,0.10
2022-12-09T03:15:25.836Z,0.00
2022-12-09T03:17:58.517Z,0.00
2022-12-09T03:20:31.007Z,0.00
2022-12-09T03:23:05.726Z,0.00
2022-12-09T03:25:39.744Z,0.00
2022-12-09T03:28:11.581Z,-0.10
2022-12-09T03:30:42.630Z,-0.10
2022-12-09T03:33:12.876Z,0.00
2022-12-09T03:35:45.767Z,0.00
2022-12-09T03:38:17.981Z,0.00
2022-12-09T03:40:47.770Z,0.00
2022-12-09T03:43:20.929Z,0.00
2022-12-09T03:45:49.614Z,0.00
2022-12-09T03:48:17.859Z,0.00
2022-12-09T03:50:53.071Z,0.00
2022-12-09T03:53:27.011Z,0.00
2022-12-09T03:56:00.621Z,0.00
2022-12-09T03:58:29.574Z,0.00
2022-12-09T04:00:57.670Z,0.00
2022-12-09T04:03:25.944Z,-0.10
2022-12-09T04:05:55.330Z,-0.10
2022-12-09T04:08:23.390Z,0.00
2022-12-09T04:10:51.469Z,-0.10
2022-12-09T04:13:19.782Z,0.00
2022-12-09T04:15:48.245Z,0.10
2022-12-09T04:18:16.355Z,-0.10
2022-12-09T04:20:44.584Z,-0.20
2022-12-09T04:23:14.016Z,-0.20
2022-12-09T04:25:42.274Z,-0.10
2022-12-09T04:28:10.384Z,-0.10
2022-12-09T04:30:38.554Z,-0.20
2022-12-09T04:33:06.805Z,-0.20
2022-12-09T04:35:34.877Z,-0.20
2022-12-09T04:38:02.832Z,-0.20
2022-12-09T04:40:32.584Z,-0.20
2022-12-09T04:43:00.533Z,-0.20
2022-12-09T04:45:28.632Z,-0.20
2022-12-09T04:47:56.672Z,-0.20
2022-12-09T04:50:24.611Z,-0.10
2022-12-09T04:52:52.791Z,-0.20
2022-12-09T04:55:20.671Z,-0.20
2022-12-09T04:57:50.018Z,-0.20
2022-12-09T05:00:19.614Z,-0.10
2022-12-09T05:02:47.711Z,-0.10
2022-12-09T05:05:15.948Z,-0.10
2022-12-09T05:07:44.372Z,-0.20
2022-12-09T05:10:13.595Z,-0.20
2022-12-09T05:12:42.604Z,-0.10
2022-12-09T05:15:12.672Z,-0.10
2022-12-09T05:17:40.891Z,-0.10
2022-12-09T05:20:10.120Z,-0.10
2022-12-09T05:22:38.571Z,-0.10
2022-12-09T05:25:07.354Z,-0.10
2022-12-09T05:27:35.532Z,-0.10
2022-12-09T05:30:03.736Z,-0.10
2022-12-09T05:32:33.609Z,-0.10
2022-12-09T05:35:01.993Z,-0.10
2022-12-09T05:37:30.260Z,-0.10
2022-12-09T05:39:58.298Z,-0.10
2022-12-09T05:42:26.410Z,-0.10
2022-12-09T05:44:54.810Z,-0.10
2022-12-09T05:47:22.811Z,0.00
2022-12-09T05:49:52.660Z,0.00
2022-12-09T05:52:20.683Z,0.00
2022-12-09T05:54:49.184Z,0.00
2022-12-09T05:57:17.232Z,0.00
2022-12-09T05:59:45.931Z,0.00
2022-12-09T06:02:14.021Z,0.00
2022-12-09T06:04:42.151Z,0.00
2022-12-09T06:07:12.114Z,0.00
2022-12-09T06:09:40.320Z,0.00
2022-12-09T06:12:08.983Z,0.00
2022-12-09T06:14:37.103Z,0.10
2022-12-09T06:17:05.479Z,0.10
2022-12-09T06:19:33.609Z,0.00
2022-12-09T06:22:02.017Z,0.10
2022-12-09T06:24:31.476Z,0.10
2022-12-09T06:26:59.713Z,0.10
2022-12-09T06:29:27.733Z,0.10
2022-12-09T06:31:55.758Z,0.10
2022-12-09T06:34:24.605Z,0.10
2022-12-09T06:36:52.642Z,0.10
2022-12-09T06:39:21.115Z,0.10
2022-12-09T06:41:50.444Z,0.20
2022-12-09T06:44:23.462Z,0.20
2022-12-09T06:46:52.357Z,0.20
2022-12-09T06:49:20.885Z,0.20
2022-12-09T06:51:49.334Z,0.20
2022-12-09T06:54:18.073Z,0.20
2022-12-09T06:56:46.180Z,0.20
2022-12-09T06:59:16.140Z,0.20
2022-12-09T07:01:45.805Z,0.30
2022-12-09T07:04:15.736Z,0.30
2022-12-09T07:06:46.080Z,0.20
2022-12-09T07:09:16.770Z,0.30
2022-12-09T07:11:46.314Z,0.30
2022-12-09T07:14:17.008Z,0.30
2022-12-09T07:16:45.542Z,0.20
2022-12-09T07:19:19.001Z,0.20
2022-12-09T07:21:47.904Z,0.30
2022-12-09T07:24:16.686Z,0.30
2022-12-09T07:26:44.739Z,0.40
2022-12-09T07:29:13.437Z,0.40
2022-12-09T07:31:43.103Z,0.40
2022-12-09T07:34:12.731Z,0.50
2022-12-09T07:36:40.827Z,0.50
2022-12-09T07:39:16.337Z,0.60
2022-12-09T07:41:44.687Z,0.60
2022-12-09T07:44:13.451Z,0.70
2022-12-09T07:46:43.031Z,0.70
2022-12-09T07:49:12.832Z,0.80
2022-12-09T07:51:41.442Z,0.90
2022-12-09T07:54:12.369Z,0.90
2022-12-09T07:56:40.926Z,1.00
2022-12-09T07:59:09.729Z,1.00
2022-12-09T08:01:38.529Z,0.90
2022-12-09T08:04:09.213Z,0.90
2022-12-09T08:06:38.048Z,0.90
2022-12-09T08:09:08.151Z,0.90
2022-12-09T08:11:36.773Z,0.90
2022-12-09T08:14:12.257Z,0.90
2022-12-09T08:16:41.590Z,0.90
2022-12-09T08:19:12.159Z,1.00
2022-12-09T08:21:41.890Z,1.00
2022-12-09T08:24:15.266Z,1.00
2022-12-09T08:26:43.457Z,1.10
2022-12-09T08:29:14.239Z,1.10
2022-12-09T08:31:44.057Z,1.20
2022-12-09T08:34:14.554Z,1.20
2022-12-09T08:36:43.431Z,1.20
2022-12-09T08:39:13.148Z,1.30
2022-12-09T08:41:41.865Z,1.30
2022-12-09T08:44:12.154Z,1.40
2022-12-09T08:46:42.052Z,1.40
2022-12-09T08:49:11.157Z,1.50
2022-12-09T08:51:41.398Z,1.60
2022-12-09T08:54:09.873Z,1.60
2022-12-09T08:56:38.124Z,1.70
2022-12-09T08:59:06.735Z,1.70
2022-12-09T09:01:36.396Z,1.70
2022-12-09T09:04:06.651Z,1.70
2022-12-09T09:06:35.510Z,1.70
2022-12-09T09:09:05.819Z,1.70
2022-12-09T09:11:34.417Z,1.70
2022-12-09T09:14:05.667Z,1.80
2022-12-09T09:16:34.810Z,1.80
2022-12-09T09:19:05.839Z,1.90
2022-12-09T09:21:35.749Z,1.90
2022-12-09T09:24:10.284Z,1.90
2022-12-09T09:26:41.614Z,2.00
2022-12-09T09:29:11.839Z,2.00
2022-12-09T09:31:40.147Z,2.10
2022-12-09T09:34:08.528Z,2.10
2022-12-09T09:36:37.047Z,2.10
2022-12-09T09:39:07.124Z,2.10
2022-12-09T09:41:45.335Z,2.10
2022-12-09T09:44:22.520Z,2.10
2022-12-09T09:46:52.711Z,2.10
2022-12-09T09:49:29.778Z,2.10
2022-12-09T09:51:58.497Z,2.20
2022-12-09T09:54:28.075Z,2.20
2022-12-09T09:57:00.910Z,2.20
2022-12-09T09:59:50.039Z,2.30
2022-12-09T10:02:20.959Z,2.30
2022-12-09T10:05:00.200Z,2.30
2022-12-09T10:07:36.567Z,2.30
2022-12-09T10:10:17.803Z,2.40
2022-12-09T10:13:06.123Z,2.30
2022-12-09T10:15:49.656Z,2.40
2022-12-09T10:18:22.699Z,2.40
2022-12-09T10:20:51.351Z,2.50
2022-12-09T10:23:20.211Z,2.50
2022-12-09T10:25:54.051Z,2.60
2022-12-09T10:28:24.094Z,2.60
2022-12-09T10:30:53.567Z,2.70
2022-12-09T10:33:27.816Z,2.60
2022-12-09T10:35:56.284Z,2.70
2022-12-09T10:38:26.217Z,2.70
2022-12-09T10:41:02.916Z,2.70
2022-12-09T10:43:39.017Z,2.80
2022-12-09T10:46:19.524Z,2.80
2022-12-09T10:48:56.040Z,2.90
2022-12-09T10:51:26.985Z,2.90
2022-12-09T10:53:58.018Z,3.00
2022-12-09T10:56:30.696Z,3.00
2022-12-09T10:59:11.596Z,3.10
2022-12-09T11:01:51.746Z,3.10
2022-12-09T11:04:25.164Z,3.20
2022-12-09T11:06:59.362Z,3.20
2022-12-09T11:09:31.017Z,3.20
2022-12-09T11:12:01.989Z,3.20
2022-12-09T11:14:36.744Z,3.30
2022-12-09T11:17:17.835Z,3.30
2022-12-09T11:19:50.753Z,3.30
2022-12-09T11:22:36.397Z,3.30
2022-12-09T11:25:22.749Z,3.40
2022-12-09T11:27:54.712Z,3.40
2022-12-09T11:30:25.507Z,3.50
2022-12-09T11:33:01.105Z,3.60
2022-12-09T11:35:58.261Z,3.70
2022-12-09T11:38:37.802Z,3.70
2022-12-09T11:41:14.928Z,3.70
2022-12-09T11:43:47.536Z,3.70
2022-12-09T11:46:22.911Z,3.70
2022-12-09T11:48:56.435Z,3.70
2022-12-09T11:51:27.497Z,3.70
2022-12-09T11:54:03.389Z,3.80
2022-12-09T11:56:32.883Z,3.80
2022-12-09T11:59:05.444Z,3.80
2022-12-09T12:01:44.320Z,3.80
2022-12-09T12:04:15.614Z,3.90
2022-12-09T12:06:48.282Z,3.80
2022-12-09T12:09:22.681Z,3.80
2022-12-09T12:11:58.398Z,3.80
2022-12-09T12:14:30.597Z,3.80
2022-12-09T12:17:08.240Z,3.80
2022-12-09T12:19:39.056Z,3.80
2022-12-09T12:22:29.968Z,3.80
2022-12-09T12:25:20.783Z,3.80
2022-12-09T12:28:07.825Z,3.80
2022-12-09T12:30:45.853Z,3.70
2022-12-09T12:36:27.495Z,3.70
2022-12-09T12:39:11.257Z,3.70
2022-12-09T12:41:49.026Z,3.70
2022-12-09T12:44:57.299Z,3.70
2022-12-09T12:47:34.220Z,3.70
2022-12-09T12:50:21.441Z,3.70
2022-12-09T12:52:57.154Z,3.60
2022-12-09T12:55:42.297Z,3.70
2022-12-09T12:58:18.426Z,3.60
2022-12-09T13:01:04.681Z,3.60
2022-12-09T13:03:41.587Z,3.60
2022-12-09T13:06:14.452Z,3.60
2022-12-09T13:08:47.116Z,3.60
2022-12-09T13:11:20.751Z,3.60
2022-12-09T13:13:53.734Z,3.50
2022-12-09T13:16:27.441Z,3.50
2022-12-09T13:19:02.371Z,3.60
2022-12-09T13:21:30.393Z,3.60
2022-12-09T13:24:04.477Z,3.60
2022-12-09T13:26:41.378Z,3.60
2022-12-09T13:29:29.882Z,3.50
2022-12-09T13:32:04.251Z,3.50
2022-12-09T13:34:38.560Z,3.50
2022-12-09T13:37:26.738Z,3.50
2022-12-09T13:39:57.816Z,3.50
2022-12-09T13:42:56.256Z,3.50
2022-12-09T13:45:32.936Z,3.50
2022-12-09T13:48:05.283Z,3.50
2022-12-09T13:50:39.374Z,3.50
2022-12-09T13:53:25.250Z,3.50
2022-12-09T13:55:55.994Z,3.50
2022-12-09T13:58:48.007Z,3.50
2022-12-09T14:01:24.416Z,3.50
2022-12-09T14:04:13.050Z,3.50
2022-12-09T14:07:10.306Z,3.50
2022-12-09T14:09:47.208Z,3.50
2022-12-09T14:12:16.524Z,3.50
2022-12-09T14:14:53.689Z,3.50
2022-12-09T14:17:58.962Z,3.50
2022-12-09T14:20:32.914Z,3.50
2022-12-09T14:23:19.712Z,3.50
2022-12-09T14:26:11.569Z,3.50
2022-12-09T14:29:00.586Z,3.50
2022-12-09T14:31:57.794Z,3.50
2022-12-09T14:34:44.351Z,3.50
2022-12-09T14:37:45.636Z,3.50
2022-12-09T14:40:44.758Z,3.50
2022-12-09T14:43:28.877Z,3.50
2022-12-09T14:46:00.596Z,3.50
2022-12-09T14:48:33.492Z,3.50
2022-12-09T14:51:10.081Z,3.50
2022-12-09T14:53:39.377Z,3.50
2022-12-09T14:56:09.465Z,3.50
2022-12-09T14:58:38.277Z,3.50
2022-12-09T15:01:07.159Z,3.50
2022-12-09T15:03:43.011Z,3.40
2022-12-09T15:06:18.767Z,3.40
2022-12-09T15:08:46.939Z,3.40
2022-12-09T15:11:19.418Z,3.40
2022-12-09T15:13:50.206Z,3.30
2022-12-09T15:16:20.708Z,3.30
2022-12-09T15:18:49.585Z,3.30
2022-12-09T15:21:28.301Z,3.30
2022-12-09T15:23:56.752Z,3.30
2022-12-09T15:26:28.008Z,3.30
2022-12-09T15:28:57.508Z,3.30
2022-12-09T15:31:27.647Z,3.30
2022-12-09T15:33:57.326Z,3.30
2022-12-09T15:36:28.114Z,3.30
2022-12-09T15:39:00.056Z,3.20
2022-12-09T15:41:52.008Z,3.30
2022-12-09T15:44:22.420Z,3.20
2022-12-09T15:46:52.971Z,3.20
2022-12-09T15:49:24.816Z,3.20
2022-12-09T15:51:56.341Z,3.20
2022-12-09T15:54:28.226Z,3.20
2022-12-09T15:56:59.387Z,3.20
2022-12-09T15:59:31.292Z,3.20
2022-12-09T16:02:00.616Z,3.20
2022-12-09T16:04:32.808Z,3.20
2022-12-09T16:07:06.861Z,3.10
2022-12-09T16:09:34.858Z,3.10
2022-12-09T16:12:04.266Z,3.10
2022-12-09T16:14:43.473Z,3.10
2022-12-09T16:17:22.200Z,3.20
2022-12-09T16:19:50.213Z,3.20
2022-12-09T16:22:22.633Z,3.20
2022-12-09T16:27:51.032Z,3.10
2022-12-09T16:30:21.310Z,3.20
2022-12-09T16:32:51.477Z,3.20
2022-12-09T16:35:25.038Z,3.20
2022-12-09T16:38:19.293Z,3.20
2022-12-09T16:41:09.320Z,3.10
2022-12-09T16:43:54.599Z,3.10
2022-12-09T16:46:38.954Z,3.10
2022-12-09T16:49:08.182Z,3.20
2022-12-09T16:51:37.976Z,3.10
2022-12-09T16:54:19.776Z,3.10
2022-12-09T16:56:48.439Z,3.10
2022-12-09T16:59:17.702Z,3.10
2022-12-09T17:01:45.745Z,3.10
2022-12-09T17:04:16.089Z,3.10
2022-12-09T17:06:44.438Z,3.10
2022-12-09T17:09:13.528Z,3.10
2022-12-09T17:11:47.019Z,3.20
2022-12-09T17:14:18.117Z,3.10
2022-12-09T17:16:46.090Z,3.10
2022-12-09T17:19:14.073Z,3.10
2022-12-09T17:21:41.963Z,3.10
2022-12-09T17:24:12.337Z,3.10
2022-12-09T17:26:40.398Z,3.10
2022-12-09T17:29:08.368Z,3.20
2022-12-09T17:31:37.667Z,3.20
2022-12-09T17:34:05.586Z,3.20
2022-12-09T17:36:33.419Z,3.20
2022-12-09T17:39:02.257Z,3.20
2022-12-09T17:41:30.143Z,3.20
2022-12-09T17:43:58.122Z,3.10
2022-12-09T17:46:26.348Z,3.10
2022-12-09T17:48:55.793Z,3.10
2022-12-09T17:51:23.811Z,3.10
2022-12-09T17:53:51.736Z,3.20
2022-12-09T17:56:21.829Z,3.10
2022-12-09T17:58:56.405Z,3.10
2022-12-09T18:01:25.685Z,3.10
2022-12-09T18:04:02.856Z,3.10
2022-12-09T18:06:34.390Z,3.10
2022-12-09T18:09:02.928Z,3.10
2022-12-09T18:11:30.811Z,3.10
2022-12-09T18:13:59.159Z,3.10
2022-12-09T18:16:27.261Z,3.10
2022-12-09T18:18:55.415Z,3.10
2022-12-09T18:21:24.647Z,3.20
2022-12-09T18:23:52.535Z,3.20
2022-12-09T18:26:23.469Z,3.20
2022-12-09T18:28:56.296Z,3.20
2022-12-09T18:31:25.577Z,3.20
2022-12-09T18:33:54.675Z,3.20
2022-12-09T18:36:26.386Z,3.20
2022-12-09T18:38:55.033Z,3.20
2022-12-09T18:41:25.308Z,3.20
2022-12-09T18:43:56.754Z,3.20
2022-12-09T18:46:26.966Z,3.20
2022-12-09T18:48:59.053Z,3.20
2022-12-09T18:51:29.448Z,3.20
2022-12-09T18:53:58.160Z,3.20
2022-12-09T18:56:26.848Z,3.20
2022-12-09T18:59:10.993Z,3.20
2022-12-09T19:01:41.620Z,3.20
2022-12-09T19:04:13.752Z,3.20
2022-12-09T19:06:44.693Z,3.20
2022-12-09T19:09:14.358Z,3.20
2022-12-09T19:11:43.716Z,3.20
2022-12-09T19:14:12.087Z,3.20
2022-12-09T19:16:40.066Z,3.20
2022-12-09T19:19:10.509Z,3.30
2022-12-09T19:21:39.643Z,3.20
2022-12-09T19:24:12.384Z,3.30
2022-12-09T19:26:41.529Z,3.30
2022-12-09T19:29:10.429Z,3.30
2022-12-09T19:31:39.884Z,3.30
2022-12-09T19:34:13.470Z,3.20
2022-12-09T19:36:41.841Z,3.30
2022-12-09T19:39:12.348Z,3.30
2022-12-09T19:41:41.024Z,3.30
2022-12-09T19:44:10.651Z,3.30
2022-12-09T19:46:38.738Z,3.30
2022-12-09T19:49:06.801Z,3.30
2022-12-09T19:51:34.976Z,3.30
2022-12-09T19:54:03.259Z,3.30
2022-12-09T19:56:32.546Z,3.30
2022-12-09T19:59:00.926Z,3.30
2022-12-09T20:01:30.757Z,3.30
2022-12-09T20:04:13.552Z,3.30
2022-12-09T20:06:49.258Z,3.30
2022-12-09T20:09:24.190Z,3.30
2022-12-09T20:11:54.194Z,3.30
2022-12-09T20:14:22.096Z,3.30
2022-12-09T20:16:50.122Z,3.30
2022-12-09T20:19:19.676Z,3.30
2022-12-09T20:21:47.636Z,3.30
2022-12-09T20:24:15.738Z,3.40
2022-12-09T20:26:44.252Z,3.40
2022-12-09T20:29:13.923Z,3.30
2022-12-09T20:31:43.313Z,3.30
2022-12-09T20:34:14.846Z,3.40
2022-12-09T20:36:44.917Z,3.30
2022-12-09T20:39:15.263Z,3.30
2022-12-09T20:41:44.382Z,3.40
2022-12-09T20:44:15.130Z,3.40
2022-12-09T20:46:47.396Z,3.30
2022-12-09T20:49:15.292Z,3.30
2022-12-09T20:51:45.290Z,3.30
2022-12-09T20:54:13.914Z,3.30
2022-12-09T20:56:42.338Z,3.30
2022-12-09T20:59:11.579Z,3.30
2022-12-09T21:01:41.000Z,3.30
2022-12-09T21:04:09.517Z,3.20
2022-12-09T21:06:38.842Z,3.30
2022-12-09T21:09:11.495Z,3.30
2022-12-09T21:11:39.870Z,3.20
2022-12-09T21:14:08.841Z,3.20
2022-12-09T21:16:40.756Z,3.30
2022-12-09T21:19:12.628Z,3.30
2022-12-09T21:21:42.980Z,3.30
2022-12-09T21:24:13.652Z,3.30
2022-12-09T21:26:41.755Z,3.40
2022-12-09T21:29:11.622Z,3.40
2022-12-09T21:31:42.612Z,3.40
2022-12-09T21:34:13.275Z,3.40
2022-12-09T21:36:43.361Z,3.40
2022-12-09T21:39:13.399Z,3.30
2022-12-09T21:41:41.650Z,3.30
2022-12-09T21:44:14.031Z,3.30
2022-12-09T21:46:43.834Z,3.30
2022-12-09T21:49:12.753Z,3.30
2022-12-09T21:51:40.787Z,3.30
2022-12-09T21:54:08.680Z,3.30
2022-12-09T21:56:37.038Z,3.30
2022-12-09T21:59:06.359Z,3.20
2022-12-09T22:01:36.107Z,3.20
2022-12-09T22:04:07.016Z,3.20
2022-12-09T22:06:35.645Z,3.20
2022-12-09T22:09:05.156Z,3.20
2022-12-09T22:11:36.891Z,3.20
2022-12-09T22:14:05.728Z,3.20
2022-12-09T22:16:35.571Z,3.20
2022-12-09T22:19:06.020Z,3.20
2022-12-09T22:21:34.559Z,3.20
2022-12-09T22:24:04.665Z,3.20
2022-12-09T22:26:33.294Z,3.30
2022-12-09T22:29:02.224Z,3.30
2022-12-09T22:31:32.310Z,3.30
2022-12-09T22:34:02.841Z,3.20
2022-12-09T22:36:33.002Z,3.30
2022-12-09T22:39:01.215Z,3.20
2022-12-09T22:41:30.481Z,3.30
2022-12-09T22:43:58.927Z,3.30
2022-12-09T22:46:29.368Z,3.30
2022-12-09T22:48:58.945Z,3.30
2022-12-09T22:51:28.705Z,3.30
2022-12-09T22:53:58.891Z,3.30
2022-12-09T22:56:27.462Z,3.30
2022-12-09T22:58:55.976Z,3.30
2022-12-09T23:01:27.076Z,3.30
2022-12-09T23:03:56.101Z,3.30
2022-12-09T23:06:24.483Z,3.30
2022-12-09T23:08:52.453Z,3.30
2022-12-09T23:11:23.876Z,3.30
2022-12-09T23:13:52.378Z,3.30
2022-12-09T23:16:22.480Z,3.30
2022-12-09T23:18:51.310Z,3.30
2022-12-09T23:21:21.621Z,3.30
2022-12-09T23:23:52.184Z,3.20
2022-12-09T23:26:22.553Z,3.20
2022-12-09T23:28:52.520Z,3.20
2022-12-09T23:31:22.960Z,3.30
2022-12-09T23:33:52.231Z,3.20
2022-12-09T23:36:21.784Z,3.20
2022-12-09T23:38:50.014Z,3.30
2022-12-09T23:41:19.367Z,3.30
2022-12-09T23:43:50.703Z,3.30
2022-12-09T23:46:20.367Z,3.30
2022-12-09T23:48:49.838Z,3.30
2022-12-09T23:51:19.836Z,3.30
2022-12-09T23:53:50.003Z,3.30
2022-12-09T23:56:19.765Z,3.30
2022-12-09T23:58:53.756Z,3.30
